Tiempo atmosférico en la estación meteorológica de Bañobárez, Salamanca (748 m.)



Fecha
DESCASC
Temp. máxima en grados centígrados (hora)
DESCASC
Temp. mínima en grados centígrados (hora)
DESCASC
Temp. media en grados centígrados
DESCASC
Racha de viento máxima en m/sg (hora)
DESCASC
Velocidad máxima media en intervalos de 10 minutos(hora)
DESCASC
Precipitaciones diarias en mm
DESCASC
Precipitaciones de 00:00 a 06:00 en mm
DESCASC
Precipitaciones de 06:00 a 12:00 en mm
DESCASC
Precipitaciones de 12:00 a 18:00 en mm
DESCASC
Precipitaciones de 18:00 a 24:00 en mm
DESCASC
08-12-2019 10.9 (15:50) 3.2 (02:50) 7 5.28 (16:00) 3.61 (16:00) 0 0 0 0 0
07-12-2019 12.6 (16:30) 0.2 (08:30) 6.4 3.89 (12:00) 2.5 (12:00) 0 0 0 0 0
06-12-2019 8.6 (16:20) -0.6 (08:30) 4 5 (00:20) 3.33 (03:20) 0 0 0 0 0
05-12-2019 9.1 (17:20) 1.3 (00:00) 5.2 10.83 (11:50) 6.94 (13:00) 0 0 0 0 0
04-12-2019 7.4 (16:50) -2 (08:40) 2.7 7.5 (03:20) 4.72 (03:20) 0 0 0 0 0
03-12-2019 6 (14:20) -0.3 (00:00) 2.8 10.56 (11:30) 6.11 (11:30) 0 0 0 0 0
02-12-2019 9.5 (14:20) 2.9 (00:00) 6.2 14.72 (15:00) 8.33 (15:00) 0 0 0 0 0
01-12-2019 9.8 (12:40) 4.8 (00:00) 7.3 8.33 (02:00) 5 (18:50) 0 0 0 0 0
30-11-2019 12.6 (12:50) 5.3 (00:00) 9 12.5 (12:00) 7.78 (12:00) 0 0 0 0 0
29-11-2019 14 (15:50) 11.3 (00:00) 12.7 7.78 (00:10) 5 (00:10) 0 0 0 0 0
28-11-2019 12.9 (13:30) 8.7 (01:10) 10.8 13.89 (14:10) 8.33 (14:00) 0 0 0 0 0
27-11-2019 11.2 (13:50) 6.5 (00:00) 8.8 12.22 (00:30) 7.78 (00:40) 0 0 0 0 0
26-11-2019 14.1 (14:00) 8.7 (00:00) 11.4 13.61 (12:10) 8.61 (14:10) 0 0 0 0 0
25-11-2019 13.4 (13:30) 8.7 (23:59) 11 10.56 (14:30) 6.67 (10:40) 0 0 0 0 0
24-11-2019 10.2 (16:20) 2.7 (00:00) 6.4 10.28 (22:40) 6.11 (22:50) 0 0 0 0 0
23-11-2019 10.1 (15:50) 4.1 (00:00) 7.1 14.72 (00:50) 8.61 (01:50) 0 0 0 0 0
22-11-2019 11.5 (12:30) 6.1 (00:00) 8.8 21.67 (15:00) 10 (15:00) 12.6 2.6 3.4 2.6 4
21-11-2019 10.8 (14:50) 4.7 (00:00) 7.8 8.06 (15:00) 5 (13:50) 2 1.2 0.2 0 0.6
20-11-2019 6.7 (16:10) 3.8 (22:20) 5.2 10.28 (13:10) 5.83 (06:50) 7.8 2.6 5 0 0.2
19-11-2019 9.5 (15:10) -0.3 (00:00) 4.6 6.67 (23:20) 4.17 (23:20) 0.6 0 0 0 0.6
18-11-2019 9.9 (15:30) 0.4 (00:00) 5.1 7.22 (00:10) 4.17 (00:10) 0 0 0 0 0
17-11-2019 9.5 (14:40) 3.5 (00:00) 6.5 9.72 (15:00) 5.83 (17:00) 0 0 0 0 0
16-11-2019 7.3 (16:50) -1.6 (-00:0) 2.9 7.22 (15:10) 3.89 (15:10) 0 0 0 0 0
15-11-2019 6.3 (14:00) 1.2 (00:00) 3.8 13.06 (14:00) 8.06 (14:00) 0 0 0 0 0
14-11-2019 7.7 (00:10) 3.2 (00:00) 5.4 15.56 (20:00) 9.72 (15:20) 0 0 0 0 0
13-11-2019 14.6 (14:40) 7.6 (00:00) 11.1 11.67 (00:40) 7.22 (00:40) 0 0 0 0 0
12-11-2019 10.2 (23:40) 1.6 (00:00) 5.9 11.39 (23:50) 6.39 (21:20) 0 0 0 0 0
11-11-2019 12.3 (14:20) 3.8 (23:20) 8.1 10.28 (15:00) 6.67 (14:00) 0 0 0 0 0

Gráficas

Temp. máximas Temp. mínimas Temp. medias Precipitaciones Rachas de viento máximas Velocidades máximas media en intervalos de 10 minutos

Datos horarios

Fecha y hora oficial Temperatura (ºC) Velocidad del viento (km/h) Dirección del viento Racha (km/h) Dirección de racha Precipitación (mm) Presión (hPa) Tendencia (hPa) Humedad (%)
2019-12-10 23:00:00 4.2 8 Sur 12 Sur 0 -- -- 85
2019-12-10 22:00:00 4.4 4 Sudoeste 11 Sur 0 -- -- 86
2019-12-10 21:00:00 5.2 7 Sudoeste 12 Sur 0 -- -- 84
2019-12-10 20:00:00 5.2 8 Sur 11 Sur 0 -- -- 88
2019-12-10 19:00:00 6.2 3 Sudoeste 5 Oeste 0 -- -- 83
2019-12-10 18:00:00 7.3 0 Calma 8 Sur 0 -- -- 86
2019-12-10 17:00:00 7.8 3 Sudeste 8 Sur 0 -- -- 85
2019-12-10 16:00:00 8.1 6 Oeste 8 Sudoeste 0 -- -- 82
2019-12-10 15:00:00 8.8 2 Sur 6 Oeste 0 -- -- 77
2019-12-10 14:00:00 8.9 2 Sudoeste 10 Este 0 -- -- 78
2019-12-10 13:00:00 6.8 3 Este 12 Sudeste 0 -- -- 85
2019-12-10 12:00:00 5 7 Sudeste 9 Este 0 -- -- 91
2019-12-10 11:00:00 4.1 0 Calma 14 Sudeste 0 -- -- 96
2019-12-10 10:00:00 0.8 2 Este 6 Este 0 -- -- 98
2019-12-10 09:00:00 0.1 2 Este 8 Este 0 -- -- 97
2019-12-10 08:00:00 -1.5 0 Calma 3 Sudeste 0 -- -- 95
2019-12-10 07:00:00 -0.1 0 Calma 5 Oeste 0 -- -- 94
2019-12-10 06:00:00 0.7 2 Sudeste 10 Sudeste 0 -- -- 96
2019-12-10 05:00:00 1 7 Este 13 Este 0 -- -- 95
2019-12-10 04:00:00 0.2 3 Este 5 Este 0 -- -- 96
2019-12-10 03:00:00 0.4 0 Calma 9 Este 0 -- -- 94
2019-12-10 02:00:00 0.8 4 Sudeste 9 Este 0 -- -- 94
2019-12-10 01:00:00 1.7 6 Este 8 Este 0 -- -- 94
2019-12-10 00:00:00 0.9 2 Este 5 Este 0 -- -- 94
2019-12-09 23:00:00 1.4 0 Calma 0 Calma 0 -- -- 92
2019-12-09 22:00:00 1.7 0 Calma 4 Este 0 -- -- 90
2019-12-09 21:00:00 3.3 0 Calma 4 Este 0 -- -- 85
2019-12-09 20:00:00 4.9 2 Noroeste 4 Noroeste 0 -- -- 86
2019-12-09 19:00:00 7 5 Oeste 9 Oeste 0 -- -- 78
2019-12-09 18:00:00 8 0 Calma 7 Oeste 0 -- -- 77
2019-12-09 17:00:00 9.4 3 Oeste 13 Noroeste 0 -- -- 64
2019-12-09 16:00:00 10.3 5 Noroeste 14 Oeste 0 -- -- 67
2019-12-09 15:00:00 10.5 10 Oeste 19 Noroeste 0 -- -- 62
2019-12-09 14:00:00 10.2 7 Norte 13 Oeste 0 -- -- 68
2019-12-09 13:00:00 8.5 8 Noroeste 15 Oeste 0 -- -- 82
2019-12-09 12:00:00 7.4 5 Sudoeste 9 Sur 0 -- -- 88
2019-12-09 11:00:00 6.2 4 Sur 7 Sur 0 -- -- 93
2019-12-09 10:00:00 5.2 0 Calma 8 Oeste 0 -- -- 95
2019-12-09 09:00:00 5.1 4 Oeste 11 Oeste 0 -- -- 96
2019-12-09 08:00:00 5 3 Noroeste 9 Oeste 0 -- -- 96
2019-12-09 07:00:00 5.6 4 Oeste 12 Noroeste 0 -- -- 95
2019-12-09 06:00:00 6.2 5 Noroeste 11 Noroeste 0 -- -- 95
2019-12-09 05:00:00 6.7 6 Noroeste 9 Norte 0 -- -- 95
2019-12-09 04:00:00 7 5 Noroeste 9 Noroeste 0 -- -- 94
2019-12-09 03:00:00 7.8 2 Noroeste 15 Noroeste 0 -- -- 95
2019-12-09 02:00:00 8.4 13 Noroeste 20 Noroeste 0 -- -- 97
2019-12-09 01:00:00 8.6 8 Noroeste 19 Noroeste 0 -- -- 98
2019-12-09 00:00:00 8.7 6 Noroeste 14 Noroeste 0 -- -- 98
2019-12-08 23:00:00 9.1 9 Noroeste 12 Noroeste 0 -- -- 98
2019-12-08 22:00:00 9.8 8 Noroeste 19 Noroeste 0 -- -- 97
2019-12-08 21:00:00 10.6 10 Noroeste 18 Noroeste 0 -- -- 97
2019-12-08 20:00:00 10.7 8 Oeste 17 Oeste 0 -- -- 97
2019-12-08 19:00:00 10.8 11 Oeste 19 Oeste 0 -- -- 97
2019-12-08 18:00:00 10.8 10 Oeste 16 Oeste 0 -- -- 96
2019-12-08 17:00:00 10.9 7 Oeste 18 Oeste 0 -- -- 96
2019-12-08 16:00:00 10.9 13 Oeste 19 Oeste 0 -- -- 96
2019-12-08 15:00:00 10.4 7 Sudoeste 15 Oeste 0 -- -- 96
2019-12-08 14:00:00 9.8 6 Sudoeste 10 Sudoeste 0 -- -- 96
2019-12-08 13:00:00 9.1 8 Sur 17 Sudoeste 0 -- -- 95
2019-12-08 12:00:00 8.7 7 Sur 13 Sur 0 -- -- 95
2019-12-08 11:00:00 7.9 7 Sur 12 Sudoeste 0 -- -- 96
2019-12-08 10:00:00 6.8 7 Sur 14 Sur 0 -- -- 97
2019-12-08 09:00:00 5.6 6 Sur 13 Sudoeste 0 -- -- 96
2019-12-08 08:00:00 6.2 5 Sudoeste 8 Sudoeste 0 -- -- 94
2019-12-08 07:00:00 5.5 3 Sudoeste 12 Sur 0 -- -- 95
2019-12-08 06:00:00 4.6 7 Sur 12 Sur 0 -- -- 94
2019-12-08 05:00:00 5 9 Sur 16 Sur 0 -- -- 95
2019-12-08 04:00:00 4 6 Sur 13 Sur 0 -- -- 96
2019-12-08 03:00:00 3.6 5 Sur 9 Sur 0 -- -- 96
2019-12-08 02:00:00 3.4 6 Sur 9 Sur 0 -- -- 95
2019-12-08 01:00:00 4.3 6 Sur 9 Sur 0 -- -- 95
2019-12-08 00:00:00 4.1 6 Sur 10 Sur 0 -- -- 95
2019-12-07 23:00:00 3.9 2 Sudoeste 8 Sudoeste 0 -- -- 91
2019-12-07 22:00:00 5 5 Sudoeste 9 Sudoeste 0 -- -- 91
2019-12-07 21:00:00 6 5 Oeste 8 Oeste 0 -- -- 91
2019-12-07 20:00:00 4.6 4 Sudoeste 5 Sudoeste 0 -- -- 88
2019-12-07 19:00:00 5.8 0 Calma 3 Sur 0 -- -- 86
2019-12-07 18:00:00 8.9 2 Sur 3 Sudoeste 0 -- -- 76
2019-12-07 17:00:00 12.4 2 Oeste 9 Oeste 0 -- -- 64
2019-12-07 16:00:00 12.4 3 Noroeste 11 Oeste 0 -- -- 66
2019-12-07 15:00:00 12.2 5 Oeste 9 Oeste 0 -- -- 65
2019-12-07 14:00:00 11.2 5 Oeste 9 Oeste 0 -- -- 69
2019-12-07 13:00:00 9.6 2 Sudoeste 13 Oeste 0 -- -- 81
2019-12-07 12:00:00 8.1 9 Noroeste 14 Noroeste 0 -- -- 86
2019-12-07 11:00:00 7.1 5 Sur 9 Sur 0 -- -- 90
2019-12-07 10:00:00 3.5 4 Sudeste 6 Sudeste 0 -- -- 98
2019-12-07 09:00:00 0.5 3 Sudeste 5 Sudeste 0 -- -- 97
2019-12-07 08:00:00 0.3 2 Sudeste 4 Sur 0 -- -- 96
2019-12-07 07:00:00 1.9 2 Sudeste 13 Sur 0 -- -- 96
2019-12-07 06:00:00 3.1 5 Sur 10 Sudeste 0 -- -- 96
2019-12-07 05:00:00 3.2 4 Este 8 Sudeste 0 -- -- 97
2019-12-07 04:00:00 3.5 2 Sudeste 8 Sudeste 0 -- -- 98
2019-12-07 03:00:00 2.8 0 Calma 4 Sur 0 -- -- 98
2019-12-07 02:00:00 1.8 0 Calma 8 Sudeste 0 -- -- 97
2019-12-07 01:00:00 2.6 5 Sur 11 Sur 0 -- -- 97
2019-12-07 00:00:00 2.2 0 Calma 6 Sur 0 -- -- 97
2019-12-06 23:00:00 2.5 4 Sur 9 Sur 0 -- -- 97
2019-12-06 22:00:00 2.3 7 Sur 12 Sur 0 -- -- 98
2019-12-06 21:00:00 1.2 2 Sudeste 5 Sudeste 0 -- -- 97
2019-12-06 20:00:00 1.1 5 Sur -- -- 0 -- -- 94
2019-12-06 19:00:00 3.1 0 Calma 7 Sudoeste 0 -- -- 91
2019-12-06 18:00:00 5.8 2 Sur 8 Sur 0 -- -- 88
2019-12-06 17:00:00 7.8 5 Sur 9 Sur 0 -- -- 84
2019-12-06 16:00:00 8.2 0 Calma 5 Oeste 0 -- -- 85
2019-12-06 15:00:00 7.8 3 Sur 10 Sur 0 -- -- 86
2019-12-06 14:00:00 6.3 0 Calma 5 Norte 0 -- -- 95
2019-12-06 13:00:00 4.4 0 Calma 8 Sudeste 0 -- -- 97
2019-12-06 12:00:00 3.2 0 Calma 10 Sudeste 0 -- -- 98
2019-12-06 11:00:00 2 5 Sudeste 9 Sudeste 0 -- -- 98
2019-12-06 10:00:00 0.2 2 Sur 9 Sudeste 0 -- -- 98
2019-12-06 09:00:00 -0.6 2 Sudeste 14 Sudeste 0 -- -- 98
2019-12-06 08:00:00 -0.1 3 Sudeste 12 Este 0 -- -- 97
2019-12-06 07:00:00 0.8 3 Nordeste 13 Este 0 -- -- 97
2019-12-06 06:00:00 0.9 6 Nordeste 9 Nordeste 0 -- -- 96
2019-12-06 05:00:00 0.9 3 Noroeste 10 Este 0 -- -- 93
2019-12-06 04:00:00 2.7 8 Este 15 Este 0 -- -- 93
2019-12-06 03:00:00 2.9 9 Este 17 Este 0 -- -- 93
2019-12-06 02:00:00 3.4 7 Nordeste 16 Nordeste 0 -- -- 93
2019-12-06 01:00:00 3.7 9 Este 18 Este 0 -- -- 93
2019-12-06 00:00:00 3.8 11 Este 15 Nordeste 0 -- -- 90
2019-12-05 23:00:00 3.5 6 Este 14 Este 0 -- -- 92
2019-12-05 22:00:00 4.6 9 Este 16 Este 0 -- -- 90
2019-12-05 21:00:00 5.3 10 Nordeste 15 Nordeste 0 -- -- 89
2019-12-05 20:00:00 6.1 7 Nordeste 12 Este 0 -- -- 86
2019-12-05 19:00:00 6.9 8 Nordeste 15 Nordeste 0 -- -- 81
2019-12-05 18:00:00 7.8 6 Nordeste 25 Nordeste 0 -- -- 79
2019-12-05 17:00:00 9 12 Nordeste 22 Nordeste 0 -- -- 76
2019-12-05 16:00:00 9 16 Nordeste 31 Nordeste 0 -- -- 75
2019-12-05 15:00:00 8.9 15 Nordeste 28 Este 0 -- -- 75
2019-12-05 14:00:00 8.2 22 Este 33 Este 0 -- -- 77
2019-12-05 13:00:00 7.7 25 Este 37 Este 0 -- -- 78
2019-12-05 12:00:00 7.1 20 Este 39 Este 0 -- -- 81
2019-12-05 11:00:00 6.1 18 Este 31 Nordeste 0 -- -- 86
2019-12-05 10:00:00 4.5 12 Nordeste 26 Este 0 -- -- 89
2019-12-05 09:00:00 3 13 Nordeste 24 Nordeste 0 -- -- 92
2019-12-05 08:00:00 2.3 12 Nordeste 19 Nordeste 0 -- -- 94
2019-12-05 07:00:00 1.6 8 Nordeste 13 Nordeste 0 -- -- 93
2019-12-05 06:00:00 1.5 8 Nordeste 13 Este 0 -- -- 91
2019-12-05 05:00:00 2.6 5 Nordeste 22 Este 0 -- -- 89
2019-12-05 04:00:00 3.4 11 Este 29 Este 0 -- -- 86
2019-12-05 03:00:00 3.6 16 Este 31 Este 0 -- -- 85
2019-12-05 02:00:00 3.1 9 Nordeste 14 Nordeste 0 -- -- 86
2019-12-05 01:00:00 3.4 8 Nordeste 12 Nordeste 0 -- -- 91
2019-12-05 00:00:00 3.4 7 Nordeste 13 Nordeste 0 -- -- 95
2019-12-04 23:00:00 3.3 5 Norte 10 Nordeste 0 -- -- 93
2019-12-04 22:00:00 3.7 4 Norte 11 Nordeste 0 -- -- 90
2019-12-04 21:00:00 4.3 6 Este 10 Este 0 -- -- 90
2019-12-04 20:00:00 4.1 5 Nordeste 8 Este 0 -- -- 89
2019-12-04 19:00:00 5.5 3 Nordeste 16 Nordeste 0 -- -- 86
2019-12-04 18:00:00 6.6 11 Nordeste 19 Este 0 -- -- 83
2019-12-04 17:00:00 7.4 12 Nordeste 23 Nordeste 0 -- -- 80
2019-12-04 16:00:00 6.8 10 Nordeste 24 Nordeste 0 -- -- 81
2019-12-04 15:00:00 6.6 13 Nordeste 23 Nordeste 0 -- -- 78
2019-12-04 14:00:00 5.5 10 Nordeste 16 Nordeste 0 -- -- 80
2019-12-04 13:00:00 3.5 6 Este 12 Este 0 -- -- 85
2019-12-04 12:00:00 2.4 8 Este 17 Nordeste 0 -- -- 87
2019-12-04 11:00:00 1.9 9 Nordeste 15 Nordeste 0 -- -- 89
2019-12-04 10:00:00 -0.5 7 Este 17 Este 0 -- -- 96
2019-12-04 09:00:00 -1.9 8 Este 20 Nordeste 0 -- -- 96
2019-12-04 08:00:00 -1.3 9 Este 19 Nordeste 0 -- -- 96
2019-12-04 07:00:00 -1.7 2 Sudeste 6 Sur 0 -- -- 94
2019-12-04 06:00:00 -0.4 3 Nordeste 15 Nordeste 0 -- -- 93
2019-12-04 05:00:00 1 3 Nordeste 14 Este 0 -- -- 91
2019-12-04 04:00:00 0.8 4 Este 27 Este 0 -- -- 93
2019-12-04 03:00:00 0.5 14 Este 24 Este 0 -- -- 93
2019-12-04 02:00:00 0.5 13 Este 20 Nordeste 0 -- -- 94
2019-12-04 01:00:00 -0.3 0 Calma 4 Este 0 -- -- 94
2019-12-04 00:00:00 0.8 4 Este 10 Este 0 -- -- 92
2019-12-03 23:00:00 1 5 Este 9 Este 0 -- -- 92
2019-12-03 22:00:00 1.2 6 Este 17 Este 0 -- -- 89
2019-12-03 21:00:00 1.8 11 Nordeste 17 Este 0 -- -- 88
2019-12-03 20:00:00 1.3 6 Nordeste 9 Nordeste 0 -- -- 90
2019-12-03 19:00:00 2.6 4 Nordeste 11 Este 0 -- -- 81
2019-12-03 18:00:00 4.5 7 Nordeste 15 Este 0 -- -- 76
2019-12-03 17:00:00 5.7 11 Este 21 Este 0 -- -- 71
2019-12-03 16:00:00 6 10 Este 24 Este 0 -- -- 72
2019-12-03 15:00:00 6 15 Nordeste 35 Este 0 -- -- 72
2019-12-03 14:00:00 5.6 15 Este 32 Nordeste 0 -- -- 71
2019-12-03 13:00:00 4.8 20 Este 31 Este 0 -- -- 75
2019-12-03 12:00:00 4 18 Este 38 Nordeste 0 -- -- 77
2019-12-03 11:00:00 3.3 21 Este 36 Este 0 -- -- 82
2019-12-03 10:00:00 1.6 12 Nordeste 23 Nordeste 0 -- -- 87
2019-12-03 09:00:00 0.3 9 Nordeste 21 Nordeste 0 -- -- 91
2019-12-03 08:00:00 0.1 9 Nordeste 19 Este 0 -- -- 92
2019-12-03 07:00:00 0 7 Este 18 Nordeste 0 -- -- 92
2019-12-03 06:00:00 0.2 12 Este 17 Este 0 -- -- 91
2019-12-03 05:00:00 -0.2 7 Nordeste 15 Nordeste 0 -- -- 91
2019-12-03 04:00:00 0.2 4 Nordeste 13 Este 0 -- -- 89
2019-12-03 03:00:00 1.2 8 Nordeste 26 Nordeste 0 -- -- 85
2019-12-03 02:00:00 1.6 9 Nordeste 23 Este 0 -- -- 83
2019-12-03 01:00:00 2.3 16 Este 30 Nordeste 0 -- -- 80
2019-12-03 00:00:00 2.9 10 Este 39 Este 0 -- -- 81
2019-12-02 23:00:00 3.6 15 Este 35 Este 0 -- -- 81
2019-12-02 22:00:00 4.3 18 Este 39 Este 0 -- -- 81
2019-12-02 21:00:00 5.1 24 Nordeste 44 Nordeste 0 -- -- 80
2019-12-02 20:00:00 5.9 21 Nordeste 36 Nordeste 0 -- -- 79
2019-12-02 19:00:00 6.5 13 Nordeste 40 Este 0 -- -- 77
2019-12-02 18:00:00 7.3 21 Nordeste 49 Nordeste 0 -- -- 73
2019-12-02 17:00:00 8.6 24 Nordeste 47 Nordeste 0 -- -- 66
2019-12-02 16:00:00 8.8 25 Nordeste 46 Nordeste 0 -- -- 67
2019-12-02 15:00:00 9.2 30 Nordeste 53 Nordeste 0 -- -- 66
2019-12-02 14:00:00 9.2 30 Este 47 Nordeste 0 -- -- 68
2019-12-02 13:00:00 7.9 19 Nordeste 40 Este 0 -- -- 76
2019-12-02 12:00:00 7.3 26 Este 48 Nordeste 0 -- -- 75
2019-12-02 11:00:00 6.2 23 Nordeste 37 Nordeste 0 -- -- 81
2019-12-02 10:00:00 5.4 21 Nordeste 39 Nordeste 0 -- -- 85
2019-12-02 09:00:00 3.9 17 Nordeste 30 Nordeste 0 -- -- 90
2019-12-02 08:00:00 3.8 12 Nordeste 26 Nordeste 0 -- -- 88
2019-12-02 07:00:00 4.1 14 Nordeste 28 Nordeste 0 -- -- 88
2019-12-02 06:00:00 4.1 16 Nordeste 34 Nordeste 0 -- -- 88
2019-12-02 05:00:00 4.6 22 Nordeste 41 Nordeste 0 -- -- 87
2019-12-02 04:00:00 5.1 21 Nordeste 40 Nordeste 0 -- -- 87
2019-12-02 03:00:00 4.9 15 Nordeste 28 Nordeste 0 -- -- 88
2019-12-02 02:00:00 5.3 14 Nordeste 32 Nordeste 0 -- -- 88
2019-12-02 01:00:00 5.8 18 Nordeste 30 Nordeste 0 -- -- 89
2019-12-02 00:00:00 4.8 8 Nordeste 21 Nordeste 0 -- -- 93
2019-12-01 23:00:00 4.9 10 Norte 21 Nordeste 0 -- -- 93
2019-12-01 22:00:00 5.7 11 Nordeste 26 Nordeste 0 -- -- 92
2019-12-01 21:00:00 6.2 14 Nordeste 28 Nordeste 0 -- -- 90
2019-12-01 20:00:00 6 10 Nordeste 24 Nordeste 0 -- -- 90
2019-12-01 19:00:00 7 14 Nordeste 28 Nordeste 0 -- -- 89
2019-12-01 18:00:00 7.7 15 Nordeste 28 Nordeste 0 -- -- 88
2019-12-01 17:00:00 8.3 16 Nordeste 26 Nordeste 0 -- -- 84
2019-12-01 16:00:00 8.4 13 Nordeste 25 Nordeste 0 -- -- 92
2019-12-01 15:00:00 8.6 11 Norte 23 Noroeste 0 -- -- 89
2019-12-01 14:00:00 9.8 5 Noroeste 13 Oeste 0 -- -- 80
2019-12-01 13:00:00 9.7 4 Noroeste 9 Noroeste 0 -- -- 82
2019-12-01 12:00:00 9.4 6 Sudoeste 14 Sudoeste 0 -- -- 84
2019-12-01 11:00:00 8 8 Sur 14 Sur 0 -- -- 94
2019-12-01 10:00:00 7 8 Sur 17 Sur 0 -- -- 95
2019-12-01 09:00:00 6.1 8 Sur 17 Sur 0 -- -- 94
2019-12-01 08:00:00 6.1 10 Sur 18 Sudoeste 0 -- -- 94
2019-12-01 07:00:00 6.5 13 Sur 28 Sur 0 -- -- 95
2019-12-01 06:00:00 6.6 11 Sudoeste 28 Sudoeste 0 -- -- 96
2019-12-01 05:00:00 6.3 12 Sur 26 Sur 0 -- -- 96
2019-12-01 04:00:00 6.1 10 Sur 19 Sur 0 -- -- 96
2019-12-01 03:00:00 5.6 12 Sur 29 Sur 0 -- -- 95
2019-12-01 02:00:00 5.4 17 Sudoeste 30 Sudoeste 0 -- -- 93
2019-12-01 01:00:00 5.8 10 Sur 20 Sudoeste 0 -- -- 88
2019-12-01 00:00:00 6.1 10 Sudoeste 18 Sudoeste 0 -- -- 91
2019-11-30 23:00:00 5.9 9 Sudoeste 23 Sudoeste 0 -- -- 94
2019-11-30 22:00:00 6.3 13 Sudoeste 19 Oeste 0 -- -- 93
2019-11-30 21:00:00 5.3 0 Calma 16 Oeste 0 -- -- 90
2019-11-30 20:00:00 6.5 10 Oeste 21 Oeste 0 -- -- 88
2019-11-30 19:00:00 7.4 8 Sudoeste 23 Oeste 0 -- -- 91
2019-11-30 18:00:00 8.5 13 Oeste 22 Oeste 0 -- -- 93
2019-11-30 17:00:00 8.6 15 Oeste 29 Oeste 0 -- -- 92
2019-11-30 16:00:00 8.9 18 Oeste 38 Noroeste 0 -- -- 92
2019-11-30 15:00:00 10.2 19 Oeste 44 Oeste 0 -- -- 94
2019-11-30 14:00:00 10.6 20 Oeste 39 Oeste 0 -- -- 95
2019-11-30 13:00:00 12.5 25 Oeste 44 Oeste 0 -- -- 89
2019-11-30 12:00:00 12.1 28 Oeste 45 Sudoeste 0 -- -- 94
2019-11-30 11:00:00 11.9 22 Sudoeste 42 Sudoeste 0 -- -- 95
2019-11-30 10:00:00 11.7 20 Sudoeste 37 Sudoeste 0 -- -- 94
2019-11-30 09:00:00 11.7 23 Sudoeste 38 Sudoeste 0 -- -- 92
2019-11-30 08:00:00 11.7 21 Sudoeste 37 Sudoeste 0 -- -- 93
2019-11-30 07:00:00 11.5 19 Sudoeste 32 Sudoeste 0 -- -- 95
2019-11-30 06:00:00 11.5 16 Sudoeste 28 Sudoeste 0 -- -- 95
2019-11-30 05:00:00 11.5 17 Sur 27 Sudoeste 0 -- -- 94
2019-11-30 04:00:00 11.5 10 Sur 21 Sudoeste 0 -- -- 94
2019-11-30 03:00:00 11.5 8 Sur 18 Sudoeste 0 -- -- 94
2019-11-30 02:00:00 11.7 10 Sur 24 Sudoeste 0 -- -- 94
2019-11-30 01:00:00 11.7 9 Sur 20 Sur 0 -- -- 95
2019-11-30 00:00:00 12 6 Sur 19 Sudoeste 0 -- -- 95
2019-11-29 23:00:00 12.1 9 Sudoeste 14 Sudoeste 0 -- -- 95
2019-11-29 22:00:00 12.2 8 Sudoeste 18 Sudoeste 0 -- -- 94
2019-11-29 21:00:00 12.2 9 Sudoeste 22 Sudoeste 0 -- -- 95
2019-11-29 20:00:00 12.5 11 Sudoeste 19 Sudoeste 0 -- -- 96
2019-11-29 19:00:00 12.4 5 Oeste 8 Sudoeste 0 -- -- 95
2019-11-29 18:00:00 12.7 4 Sudoeste 14 Sudoeste 0 -- -- 92
2019-11-29 17:00:00 13.3 11 Sudoeste 22 Sudoeste 0 -- -- 88
2019-11-29 16:00:00 13.9 14 Sudoeste 22 Sudoeste 0 -- -- 87
2019-11-29 15:00:00 13.6 12 Sudoeste 18 Oeste 0 -- -- 88
2019-11-29 14:00:00 13.3 10 Sudoeste 22 Sudoeste 0 -- -- 91
2019-11-29 13:00:00 13.2 9 Sudoeste 20 Sudoeste 0 -- -- 95
2019-11-29 12:00:00 12.5 9 Sur 17 Sudoeste 0 -- -- 97
2019-11-29 11:00:00 12.2 9 Sudoeste 15 Sudoeste 0 -- -- 97
2019-11-29 10:00:00 11.9 5 Sudoeste 16 Sudoeste 0 -- -- 97
2019-11-29 09:00:00 11.8 8 Sudoeste 22 Sudoeste 0 -- -- 97
2019-11-29 08:00:00 11.8 10 Sudoeste 18 Sudoeste 0 -- -- 97
2019-11-29 07:00:00 11.8 9 Sudoeste 23 Sudoeste 0 -- -- 97
2019-11-29 06:00:00 11.7 9 Sudoeste 17 Sur 0 -- -- 97
2019-11-29 05:00:00 11.5 4 Sudoeste 13 Sudoeste 0 -- -- 97
2019-11-29 04:00:00 11.4 7 Sudoeste 14 Sudoeste 0 -- -- 96
2019-11-29 03:00:00 11.4 5 Sudoeste 18 Sudoeste 0 -- -- 95
2019-11-29 02:00:00 11.4 10 Sudoeste 21 Sudoeste 0 -- -- 94
2019-11-29 01:00:00 11.5 13 Sudoeste 28 Sudoeste 0 -- -- 93
2019-11-29 00:00:00 11.4 19 Sudoeste 33 Sudoeste 0 -- -- 92
2019-11-28 23:00:00 11.3 16 Sudoeste 37 Sudoeste 0 -- -- 91
2019-11-28 22:00:00 11.6 19 Sudoeste 36 Sudoeste 0 -- -- 89
2019-11-28 21:00:00 11.5 17 Sudoeste 34 Sudoeste 0 -- -- 87
2019-11-28 20:00:00 11.7 19 Sudoeste 34 Sudoeste 0 -- -- 84
2019-11-28 19:00:00 11.9 21 Sudoeste 41 Sudoeste 0 -- -- 82
2019-11-28 18:00:00 12 26 Sudoeste 37 Sudoeste 0 -- -- 81
2019-11-28 17:00:00 12.4 22 Sudoeste 36 Sudoeste 0 -- -- 78
2019-11-28 16:00:00 12.3 23 Sudoeste 42 Sudoeste 0 -- -- 78
2019-11-28 15:00:00 12.6 25 Sudoeste 50 Sudoeste 0 -- -- 77
2019-11-28 14:00:00 12.7 30 Sudoeste 46 Sudoeste 0 -- -- 76
2019-11-28 13:00:00 12.4 24 Sudoeste 40 Sudoeste 0 -- -- 80
2019-11-28 12:00:00 11.9 18 Sudoeste 38 Sur 0 -- -- 85
2019-11-28 11:00:00 10.6 17 Sudoeste 30 Sudoeste 0 -- -- 91
2019-11-28 10:00:00 9.8 13 Sur 27 Sur 0 -- -- 94
2019-11-28 09:00:00 9.6 15 Sudoeste 25 Sur 0 -- -- 93
2019-11-28 08:00:00 9.5 11 Sur 27 Sur 0 -- -- 94
2019-11-28 07:00:00 9.5 13 Sur 26 Sur 0 -- -- 93
2019-11-28 06:00:00 9.3 20 Sudoeste 34 Sur 0 -- -- 92
2019-11-28 05:00:00 9 15 Sur 36 Sudoeste 0 -- -- 91
2019-11-28 04:00:00 8.9 20 Sudoeste 33 Sudoeste 0 -- -- 92
2019-11-28 03:00:00 8.9 14 Sudoeste 23 Sur 0 -- -- 93
2019-11-28 02:00:00 8.7 12 Sur 26 Sudoeste 0 -- -- 92
2019-11-28 01:00:00 8.8 11 Sudoeste 27 Sudoeste 0 -- -- 91
2019-11-28 00:00:00 8.9 13 Sudoeste 25 Sudoeste 0 -- -- 90
2019-11-27 23:00:00 8.9 15 Sudoeste 27 Sudoeste 0 -- -- 90
2019-11-27 22:00:00 8.6 11 Sudoeste 23 Sudoeste 0 -- -- 91
2019-11-27 21:00:00 8.6 17 Sudoeste 27 Oeste 0 -- -- 94
2019-11-27 20:00:00 9.2 19 Sudoeste 35 Oeste 0 -- -- 88
2019-11-27 19:00:00 9.4 17 Oeste 34 Sudoeste 0 -- -- 87
2019-11-27 18:00:00 9.6 19 Oeste 39 Sudoeste 0 -- -- 84
2019-11-27 17:00:00 10.5 19 Oeste 37 Oeste 0 -- -- 81
2019-11-27 16:00:00 10.7 21 Oeste 41 Sudoeste 0 -- -- 80
2019-11-27 15:00:00 10.9 26 Oeste 43 Oeste 0 -- -- 76
2019-11-27 14:00:00 11.2 26 Sudoeste 39 Sudoeste 0 -- -- 77
2019-11-27 06:00:00 -- -- -- -- -- -- -- -- --
2019-11-27 05:00:00 -- -- -- -- -- -- -- -- --
2019-11-27 04:00:00 -- -- -- -- -- -- -- -- --
2019-11-27 03:00:00 -- -- -- -- -- -- -- -- --
2019-11-27 02:00:00 8.2 11 Sudoeste 42 Oeste 0 -- -- 89
2019-11-27 01:00:00 8.6 26 Oeste 44 Oeste 0 -- -- 84
2019-11-27 00:00:00 9.6 24 Oeste 46 Oeste 0 -- -- 90
2019-11-26 23:00:00 9.9 18 Oeste 34 Oeste 0 -- -- 94
2019-11-26 22:00:00 9.9 22 Oeste 40 Oeste 0 -- -- 94
2019-11-26 21:00:00 10.5 28 Sudoeste 44 Oeste 0 -- -- 93
2019-11-26 20:00:00 11.9 18 Sudoeste 41 Sudoeste 0 -- -- 85
2019-11-26 19:00:00 12 15 Sudoeste 32 Sudoeste 0 -- -- 87
2019-11-26 18:00:00 12.7 10 Oeste 25 Sudoeste 0 -- -- 87
2019-11-26 17:00:00 12.9 19 Sudoeste 46 Oeste 0 -- -- 88
2019-11-26 16:00:00 12.6 28 Oeste 46 Sudoeste 0 -- -- 95
2019-11-26 15:00:00 13.7 23 Sudoeste 48 Sur 0 -- -- 91
2019-11-26 14:00:00 14.1 26 Sudoeste 48 Sur 0 -- -- 86
2019-11-26 13:00:00 13.5 23 Sur 49 Sudoeste 0 -- -- 92
2019-11-26 12:00:00 13.1 26 Sudoeste 40 Sudoeste 0 -- -- 94
2019-11-26 11:00:00 12.2 21 Sur 38 Sur 0 -- -- 94
2019-11-26 10:00:00 11.9 21 Sur 40 Sudoeste 0 -- -- 95
2019-11-26 09:00:00 11.5 19 Sur 35 Sudoeste 0 -- -- 94
2019-11-26 08:00:00 11.4 19 Sudoeste 33 Sur 0 -- -- 93
2019-11-26 07:00:00 11.7 18 Sur 34 Sudoeste 0 -- -- 91
2019-11-26 06:00:00 11.3 16 Sur 27 Sur 0 -- -- 92
2019-11-26 05:00:00 10.6 15 Sur 25 Sur 0 -- -- 93
2019-11-26 04:00:00 10.5 15 Sur 29 Sur 0 -- -- 92
2019-11-26 03:00:00 10 17 Sur 28 Sur 0 -- -- 90
2019-11-26 02:00:00 9.4 12 Sur 21 Sur 0 -- -- 94
2019-11-26 01:00:00 9.6 11 Sudoeste 19 Sudoeste 0 -- -- 95
2019-11-26 00:00:00 8.7 6 Sur 9 Sur 0 -- -- 94
2019-11-25 23:00:00 10.4 6 Sudoeste 17 Oeste 0 -- -- 92
2019-11-25 22:00:00 10.6 10 Oeste 19 Sudoeste 0 -- -- 94
2019-11-25 21:00:00 10.8 8 Sudoeste 15 Sudoeste 0 -- -- 93
2019-11-25 20:00:00 11 6 Sudoeste 18 Sudoeste 0 -- -- 92
2019-11-25 19:00:00 11.4 9 Sudoeste 15 Oeste 0 -- -- 90
2019-11-25 18:00:00 11.5 10 Sudoeste 18 Sudoeste 0 -- -- 89
2019-11-25 17:00:00 12 12 Sudoeste 26 Oeste 0 -- -- 86
2019-11-25 16:00:00 12.4 13 Oeste 30 Oeste 0 -- -- 82
2019-11-25 15:00:00 12.7 18 Oeste 38 Oeste 0 -- -- 80
2019-11-25 14:00:00 13.2 17 Oeste 32 Oeste 0 -- -- 83
2019-11-25 13:00:00 12.7 19 Oeste 29 Oeste 0 -- -- 84
2019-11-25 12:00:00 12.2 21 Oeste 35 Oeste 0 -- -- 86
2019-11-25 11:00:00 12 14 Oeste 38 Oeste 0 -- -- 88
2019-11-25 10:00:00 11.5 19 Oeste 30 Oeste 0 -- -- 91
2019-11-25 09:00:00 10.3 9 Sudoeste 17 Sudoeste 0 -- -- 93
2019-11-25 08:00:00 9.9 7 Sur 24 Sudoeste 0 -- -- 93
2019-11-25 07:00:00 10.7 15 Sudoeste 29 Sudoeste 0 -- -- 94
2019-11-25 06:00:00 10.5 16 Sudoeste 28 Sudoeste 0 -- -- 95
2019-11-25 05:00:00 10.9 15 Sudoeste 33 Sudoeste 0 -- -- 95
2019-11-25 04:00:00 10.8 13 Sudoeste 19 Sudoeste 0 -- -- 96
2019-11-25 03:00:00 10.8 19 Sudoeste 35 Oeste 0 -- -- 96
2019-11-25 02:00:00 10.6 13 Sudoeste 31 Sudoeste 0 -- -- 97
2019-11-25 01:00:00 10 17 Sudoeste 33 Sudoeste 0 -- -- 97
2019-11-25 00:00:00 9.7 19 Sudoeste 35 Sudoeste 0 -- -- 96
2019-11-24 23:00:00 9.5 21 Sudoeste 37 Sur 0 -- -- 96
2019-11-24 22:00:00 9.3 18 Sur 34 Sudoeste 0 -- -- 94
2019-11-24 21:00:00 9.3 16 Sur 32 Sur 0 -- -- 93
2019-11-24 20:00:00 9.2 19 Sur 36 Sudoeste 0 -- -- 92
2019-11-24 19:00:00 9 15 Sur 30 Sur 0 -- -- 91
2019-11-24 18:00:00 8.8 21 Sudoeste 33 Sudoeste 0 -- -- 92
2019-11-24 17:00:00 9.6 15 Sudoeste 26 Sudoeste 0 -- -- 83
2019-11-24 16:00:00 10.1 17 Sudoeste 30 Sudoeste 0 -- -- 79
2019-11-24 15:00:00 9.4 14 Sudoeste 25 Sudoeste 0 -- -- 82
2019-11-24 14:00:00 9 9 Sudoeste 21 Sur 0 -- -- 81
2019-11-24 13:00:00 7.9 13 Sudoeste 21 Sudoeste 0 -- -- 86
2019-11-24 12:00:00 6.8 12 Sudoeste 20 Sudoeste 0 -- -- 90
2019-11-24 11:00:00 5.9 8 Sur 14 Sur 0 -- -- 97
2019-11-24 10:00:00 4.9 8 Sur 14 Sur 0 -- -- 98
2019-11-24 09:00:00 3.2 6 Sur 14 Sur 0 -- -- 97
2019-11-24 08:00:00 2.7 8 Sur 15 Sur 0 -- -- 96
2019-11-24 07:00:00 3.1 6 Sudoeste 11 Sudoeste 0 -- -- 95
2019-11-24 06:00:00 3.5 4 Oeste 13 Oeste 0 -- -- 96
2019-11-24 05:00:00 3.3 8 Oeste 15 Oeste 0 -- -- 97
2019-11-24 04:00:00 3.4 8 Oeste 15 Oeste 0 -- -- 96
2019-11-24 03:00:00 3.5 5 Sudoeste 11 Oeste 0 -- -- 95
2019-11-24 02:00:00 4 8 Sudoeste 17 Oeste 0 -- -- 95
2019-11-24 01:00:00 4.7 12 Oeste 23 Oeste 0 -- -- 92
2019-11-24 00:00:00 5.2 10 Oeste 15 Oeste 0 -- -- 93
2019-11-23 23:00:00 4.8 10 Oeste 19 Oeste 0 -- -- 92
2019-11-23 22:00:00 5.5 14 Oeste 23 Oeste 0 -- -- 88
2019-11-23 21:00:00 6 15 Oeste 27 Oeste 0 -- -- 85
2019-11-23 20:00:00 5.5 15 Noroeste 25 Oeste 0 -- -- 85
2019-11-23 19:00:00 6.4 15 Oeste 29 Oeste 0 -- -- 81
2019-11-23 18:00:00 7.7 16 Oeste 34 Oeste 0 -- -- 74
2019-11-23 17:00:00 9.2 22 Oeste 37 Oeste 0 -- -- 68
2019-11-23 16:00:00 10 22 Noroeste 40 Oeste 0 -- -- 64
2019-11-23 15:00:00 9.4 19 Noroeste 40 Noroeste 0 -- -- 68
2019-11-23 14:00:00 9.3 21 Noroeste 33 Oeste 0 -- -- 70
2019-11-23 13:00:00 8.1 18 Oeste 34 Oeste 0 -- -- 77
2019-11-23 12:00:00 8 20 Oeste 30 Oeste 0 -- -- 77
2019-11-23 11:00:00 7 16 Oeste 31 Oeste 0 -- -- 81
2019-11-23 10:00:00 6 19 Oeste 28 Oeste 0 -- -- 84
2019-11-23 09:00:00 5.2 11 Oeste 22 Oeste 0 -- -- 86
2019-11-23 08:00:00 5 14 Oeste 27 Oeste 0 -- -- 87
2019-11-23 07:00:00 4.8 17 Oeste 32 Oeste 0 -- -- 87
2019-11-23 06:00:00 4.6 16 Oeste 34 Oeste 0 -- -- 87
2019-11-23 05:00:00 4.2 22 Oeste 37 Oeste 0 -- -- 89
2019-11-23 04:00:00 4.8 20 Oeste 36 Oeste 0 -- -- 86
2019-11-23 03:00:00 5.5 24 Oeste 46 Oeste 0 -- -- 85
2019-11-23 02:00:00 5.8 27 Oeste 44 Oeste 0 -- -- 86
2019-11-23 01:00:00 5.5 25 Oeste 53 Oeste 0 -- -- 87
2019-11-23 00:00:00 6.1 23 Oeste 42 Oeste 0 -- -- 90
2019-11-22 23:00:00 6.6 26 Oeste 48 Noroeste 3.2 -- -- 92
2019-11-22 22:00:00 7.6 24 Oeste 48 Oeste 0 -- -- 89
2019-11-22 21:00:00 8.2 24 Oeste 53 Sudoeste 0.8 -- -- 93
2019-11-22 20:00:00 8.6 27 Sudoeste 43 Oeste 0 -- -- 90
2019-11-22 19:00:00 8.6 26 Oeste 53 Oeste 0 -- -- 89
2019-11-22 18:00:00 8.9 26 Oeste 43 Oeste 0 -- -- 88
2019-11-22 17:00:00 9.2 27 Oeste 56 Oeste 1 -- -- 85
2019-11-22 16:00:00 9.6 21 Sudoeste 46 Oeste 0 -- -- 87
2019-11-22 15:00:00 10.1 36 Oeste 78 Sudoeste 0.6 -- -- 89
2019-11-22 14:00:00 11.4 27 Oeste 50 Oeste 0.4 -- -- 89
2019-11-22 13:00:00 11.2 17 Sudoeste 45 Sur 0.6 -- -- 94
2019-11-22 12:00:00 10.1 31 Sudoeste 50 Sudoeste 1 -- -- 96
2019-11-22 11:00:00 9.5 26 Sur 55 Sur 1.6 -- -- 94
2019-11-22 10:00:00 9.4 28 Sur 49 Sur 0 -- -- 93
2019-11-22 09:00:00 8.7 27 Sur 48 Sur 0 -- -- 94
2019-11-22 08:00:00 8.2 26 Sur 41 Sur 0 -- -- 95
2019-11-22 07:00:00 7.7 23 Sur 39 Sur 0.8 -- -- 95
2019-11-22 06:00:00 7.4 22 Sur 40 Sur 0.8 -- -- 95
2019-11-22 05:00:00 7.1 19 Sur 34 Sur 1.2 -- -- 94
2019-11-22 04:00:00 7.5 19 Sur 34 Sur 0.4 -- -- 95
2019-11-22 03:00:00 7.5 15 Sur 28 Sur 0.2 -- -- 95
2019-11-22 02:00:00 7 12 Sur 21 Sur 0 -- -- 95
2019-11-22 01:00:00 6.8 9 Sur 21 Sur 0 -- -- 95
2019-11-22 00:00:00 6.9 12 Sur 22 Sudoeste 0 -- -- 95
2019-11-21 23:00:00 6.8 6 Sudoeste 12 Sudoeste 0 -- -- 95
2019-11-21 22:00:00 6.6 5 Sur 8 Sur 0 -- -- 95
2019-11-21 21:00:00 7.1 4 Sur 9 Sur 0 -- -- 95
2019-11-21 20:00:00 7.2 4 Sur 9 Sur 0 -- -- 93
2019-11-21 19:00:00 7.5 4 Sudoeste 19 Oeste 0.6 -- -- 90
2019-11-21 18:00:00 8.4 11 Oeste 18 Oeste 0 -- -- 82
2019-11-21 17:00:00 8.7 6 Sudoeste 19 Sudoeste 0 -- -- 81
2019-11-21 16:00:00 9.8 14 Oeste 27 Oeste 0 -- -- 71
2019-11-21 15:00:00 10.6 15 Oeste 29 Oeste 0 -- -- 72
2019-11-21 14:00:00 10.4 17 Oeste 27 Sudoeste 0 -- -- 71
2019-11-21 13:00:00 8.8 12 Oeste 24 Oeste 0 -- -- 81
2019-11-21 12:00:00 8.3 13 Oeste 22 Oeste 0 -- -- 87
2019-11-21 11:00:00 7.7 10 Sudoeste 17 Sudoeste 0 -- -- 96
2019-11-21 10:00:00 6.8 9 Sudoeste 17 Oeste 0 -- -- 97
2019-11-21 09:00:00 6.3 8 Sudoeste 15 Sudoeste 0 -- -- 97
2019-11-21 08:00:00 6.1 9 Sudoeste 19 Sur 0 -- -- 97
2019-11-21 07:00:00 5.9 11 Sudoeste 24 Sur 0.2 -- -- 97
2019-11-21 06:00:00 5.6 11 Sur 22 Sur 0.4 -- -- 97
2019-11-21 05:00:00 5.4 12 Sur 22 Sur 0 -- -- 97
2019-11-21 04:00:00 5.4 13 Sur 24 Sur 0.4 -- -- 96
2019-11-21 03:00:00 5.2 14 Sur 25 Sur 0.4 -- -- 96
2019-11-21 02:00:00 5 11 Sur 20 Sur 0 -- -- 97
2019-11-21 01:00:00 4.9 11 Sur 21 Sur 0 -- -- 97
2019-11-21 00:00:00 4.7 12 Sur 24 Sudoeste 0.2 -- -- 96
2019-11-20 23:00:00 4.1 10 Sur 22 Sur 0 -- -- 96
2019-11-20 22:00:00 4 11 Sur 21 Sur 0 -- -- 95
2019-11-20 21:00:00 4.5 11 Sur 23 Sur 0 -- -- 94
2019-11-20 20:00:00 5.2 11 Sur 21 Sur 0 -- -- 93
2019-11-20 19:00:00 5.3 13 Sur 24 Sur 0 -- -- 92
2019-11-20 18:00:00 6 15 Sudoeste 27 Sudoeste 0 -- -- 91
2019-11-20 17:00:00 6.4 15 Sur 31 Sur 0 -- -- 90
2019-11-20 16:00:00 6.6 15 Sur 27 Sudoeste 0 -- -- 92
2019-11-20 15:00:00 6.3 17 Sudoeste 31 Sudoeste 0 -- -- 92
2019-11-20 14:00:00 6.3 13 Sur 37 Sudoeste 0 -- -- 91
2019-11-20 13:00:00 6.3 19 Sur 35 Sur 0 -- -- 91
2019-11-20 12:00:00 5.6 17 Sur 30 Sur 0 -- -- 93
2019-11-20 11:00:00 5.1 14 Sur 27 Sur 0 -- -- 93
2019-11-20 10:00:00 4.4 15 Sur 30 Sur 0 -- -- 94
2019-11-20 09:00:00 4.3 15 Sur 33 Sur 0.4 -- -- 94
2019-11-20 08:00:00 4.4 18 Sur 28 Sur 2.4 -- -- 95
2019-11-20 07:00:00 4.6 17 Sur 35 Sur 2.2 -- -- 95
2019-11-20 06:00:00 4.9 17 Sur 27 Sur 0.6 -- -- 94
2019-11-20 05:00:00 5.2 15 Sur 26 Sur 0 -- -- 94
2019-11-20 04:00:00 5.1 13 Sur 22 Sur 0 -- -- 95
2019-11-20 03:00:00 5.2 12 Sur 23 Sur 1.2 -- -- 95
2019-11-20 02:00:00 5.2 14 Sur 22 Sur 0.8 -- -- 93
2019-11-20 01:00:00 5.5 11 Sur 22 Sur 0 -- -- 91
2019-11-20 00:00:00 5.3 12 Sur 24 Sur 0.4 -- -- 89
2019-11-19 23:00:00 6 11 Sur 19 Sur 0.2 -- -- 80
2019-11-19 22:00:00 6.4 11 Sur 19 Sur 0 -- -- 78
2019-11-19 21:00:00 6.5 10 Sur 17 Sur 0 -- -- 80
2019-11-19 20:00:00 6.7 6 Sur 14 Sur 0 -- -- 79
2019-11-19 19:00:00 7.6 6 Sudoeste 13 Sudoeste 0 -- -- 76
2019-11-19 18:00:00 8 6 Sudoeste 18 Sudoeste 0 -- -- 72
2019-11-19 17:00:00 8.7 12 Sudoeste 20 Sudoeste 0 -- -- 68
2019-11-19 16:00:00 9.5 11 Sudoeste 20 Oeste 0 -- -- 65
2019-11-19 15:00:00 9.3 10 Sudoeste 22 Sudoeste 0 -- -- 69
2019-11-19 14:00:00 9 12 Sudoeste 23 Sur 0 -- -- 68
2019-11-19 13:00:00 8.3 13 Sur 21 Sur 0 -- -- 69
2019-11-19 12:00:00 6.8 9 Sur 15 Sur 0 -- -- 82
2019-11-19 11:00:00 3.9 9 Sur 14 Sur 0 -- -- 98
2019-11-19 10:00:00 1.9 2 Sudeste 12 Sur 0 -- -- 99
2019-11-19 09:00:00 0 3 Sudeste 6 Sudeste 0 -- -- 98
2019-11-19 08:00:00 -0.2 4 Sudeste 8 Sudeste 0 -- -- 98
2019-11-19 07:00:00 0 5 Sur 10 Sudeste 0 -- -- 98
2019-11-19 06:00:00 0.4 4 Sudeste 8 Sudeste 0 -- -- 97
2019-11-19 05:00:00 0.8 3 Sudeste 9 Sur 0 -- -- 97
2019-11-19 04:00:00 0.9 3 Sur 8 Sur 0 -- -- 97
2019-11-19 03:00:00 0 2 Sudoeste 7 Sur 0 -- -- 96
2019-11-19 02:00:00 0.9 4 Sudeste 10 Sur 0 -- -- 95
2019-11-19 01:00:00 0.3 3 Sur 5 Sur 0 -- -- 94
2019-11-19 00:00:00 1.1 2 Sudoeste 8 Sudoeste 0 -- -- 91
2019-11-18 23:00:00 1 3 Sudoeste 5 Sudoeste 0 -- -- 92
2019-11-18 22:00:00 1.1 0 Calma 2 Este 0 -- -- 93
2019-11-18 21:00:00 1.7 2 Este 2 Este 0 -- -- 91
2019-11-18 20:00:00 2.5 0 Calma 6 Oeste 0 -- -- 88
2019-11-18 19:00:00 4.1 3 Sudoeste 6 Oeste 0 -- -- 84
2019-11-18 18:00:00 8.5 4 Oeste 6 Oeste 0 -- -- 70
2019-11-18 17:00:00 9.7 0 Calma 9 Norte 0 -- -- 62
2019-11-18 16:00:00 9.6 5 Noroeste 14 Noroeste 0 -- -- 66
2019-11-18 15:00:00 9.5 4 Noroeste 12 Norte 0 -- -- 69
2019-11-18 14:00:00 8.5 4 Noroeste 10 Noroeste 0 -- -- 75
2019-11-18 13:00:00 7.2 2 Noroeste 12 Noroeste 0 -- -- 83
2019-11-18 12:00:00 6.1 6 Noroeste 13 Oeste 0 -- -- 86
2019-11-18 11:00:00 5.4 6 Oeste 9 Oeste 0 -- -- 88
2019-11-18 10:00:00 3.5 0 Calma 6 Sudoeste 0 -- -- 97
2019-11-18 09:00:00 0.9 3 Sudeste 8 Norte 0 -- -- 97
2019-11-18 08:00:00 0.9 5 Norte 7 Norte 0 -- -- 97
2019-11-18 07:00:00 1.1 3 Noroeste 9 Noroeste 0 -- -- 97
2019-11-18 06:00:00 1.8 8 Noroeste 12 Noroeste 0 -- -- 97
2019-11-18 05:00:00 2.2 9 Noroeste 13 Noroeste 0 -- -- 97
2019-11-18 04:00:00 2.5 8 Noroeste 17 Oeste 0 -- -- 96
2019-11-18 03:00:00 2.6 8 Noroeste 18 Oeste 0 -- -- 96
2019-11-18 02:00:00 3.1 10 Oeste 16 Oeste 0 -- -- 95
2019-11-18 01:00:00 3.8 9 Oeste 26 Oeste 0 -- -- 95
2019-11-18 00:00:00 3.8 11 Oeste 18 Oeste 0 -- -- 91
2019-11-17 23:00:00 4.2 3 Norte 31 Noroeste 0 -- -- 88
2019-11-17 22:00:00 4 13 Noroeste 20 Noroeste 0 -- -- 91
2019-11-17 21:00:00 5.1 10 Noroeste 29 Noroeste 0 -- -- 90
2019-11-17 20:00:00 7 16 Noroeste 26 Noroeste 0 -- -- 96
2019-11-17 19:00:00 7.6 9 Noroeste 28 Noroeste 0 -- -- 95
2019-11-17 18:00:00 8.2 18 Noroeste 30 Oeste 0 -- -- 96
2019-11-17 17:00:00 8.8 21 Oeste 31 Oeste 0 -- -- 96
2019-11-17 16:00:00 9.1 18 Oeste 30 Oeste 0 -- -- 96
2019-11-17 15:00:00 9.5 20 Oeste 35 Oeste 0 -- -- 96
2019-11-17 14:00:00 9.3 17 Oeste 31 Oeste 0 -- -- 96
2019-11-17 13:00:00 8.6 17 Oeste 31 Sudoeste 0 -- -- 98
2019-11-17 12:00:00 7.6 15 Sudoeste 27 Sudoeste 0 -- -- 98
2019-11-17 11:00:00 6.2 14 Sudoeste 23 Sudoeste 0 -- -- 98
2019-11-17 10:00:00 5.5 13 Sur 23 Sur 0 -- -- 98
2019-11-17 09:00:00 4.9 10 Sudoeste 18 Sudoeste 0 -- -- 97
2019-11-17 08:00:00 4.5 11 Sur 22 Sudoeste 0 -- -- 97
2019-11-17 07:00:00 4.1 12 Sur 24 Sur 0 -- -- 97
2019-11-17 06:00:00 3.8 10 Sur 21 Sur 0 -- -- 97
2019-11-17 05:00:00 3.5 12 Sur 19 Sur 0 -- -- 96
2019-11-17 04:00:00 3.6 10 Sudoeste 18 Sur 0 -- -- 93
2019-11-17 03:00:00 4 6 Sudoeste 11 Sur 0 -- -- 90
2019-11-17 02:00:00 3.7 5 Sur 12 Sudoeste 0 -- -- 88
2019-11-17 01:00:00 4.3 8 Sudoeste 16 Oeste 0 -- -- 86
2019-11-17 00:00:00 4.6 8 Oeste 14 Oeste 0 -- -- 84
2019-11-16 23:00:00 4.5 6 Sudoeste 13 Oeste 0 -- -- 82
2019-11-16 22:00:00 4.1 8 Oeste 15 Oeste 0 -- -- 79
2019-11-16 21:00:00 4.6 5 Oeste 13 Oeste 0 -- -- 75
2019-11-16 20:00:00 4.9 7 Oeste 17 Oeste 0 -- -- 70
2019-11-16 19:00:00 5.4 10 Noroeste 22 Noroeste 0 -- -- 70
2019-11-16 18:00:00 5.9 13 Noroeste 24 Noroeste 0 -- -- 68
2019-11-16 17:00:00 7.1 9 Noroeste 23 Noroeste 0 -- -- 65
2019-11-16 16:00:00 6.6 11 Oeste 26 Noroeste 0 -- -- 67
2019-11-16 15:00:00 6.5 13 Noroeste 23 Noroeste 0 -- -- 67
2019-11-16 14:00:00 6.6 13 Noroeste 23 Noroeste 0 -- -- 75
2019-11-16 13:00:00 5.4 10 Noroeste 21 Noroeste 0 -- -- 79
2019-11-16 12:00:00 4.3 9 Oeste 17 Oeste 0 -- -- 85
2019-11-16 11:00:00 3.3 8 Oeste 14 Oeste 0 -- -- 88
2019-11-16 10:00:00 1.9 7 Oeste 12 Oeste 0 -- -- 94
2019-11-16 09:00:00 -0.6 0 Calma 8 Oeste 0 -- -- 96
2019-11-16 08:00:00 -1.2 5 Oeste 9 Oeste 0 -- -- 96
2019-11-16 07:00:00 -1.1 3 Noroeste 9 Oeste 0 -- -- 95
2019-11-16 06:00:00 -1.4 4 Noroeste 9 Noroeste 0 -- -- 95
2019-11-16 05:00:00 -0.8 0 Calma 11 Noroeste 0 -- -- 94
2019-11-16 04:00:00 0 8 Noroeste 14 Noroeste 0 -- -- 94
2019-11-16 03:00:00 -0.3 8 Noroeste 11 Noroeste 0 -- -- 93
2019-11-16 02:00:00 0.4 5 Noroeste 17 Noroeste 0 -- -- 91
2019-11-16 01:00:00 0.9 10 Noroeste 18 Noroeste 0 -- -- 92
2019-11-16 00:00:00 1.3 10 Noroeste 16 Noroeste 0 -- -- 90
2019-11-15 23:00:00 1.9 8 Noroeste 20 Noroeste 0 -- -- 87
2019-11-15 22:00:00 1.8 7 Noroeste 16 Noroeste 0 -- -- 87
2019-11-15 21:00:00 2 8 Noroeste 16 Noroeste 0 -- -- 85
2019-11-15 20:00:00 2.3 8 Noroeste 15 Noroeste 0 -- -- 81
2019-11-15 19:00:00 3.3 10 Noroeste 21 Noroeste 0 -- -- 75
2019-11-15 18:00:00 4.3 15 Noroeste 32 Noroeste 0 -- -- 71
2019-11-15 17:00:00 5.6 21 Noroeste 36 Noroeste 0 -- -- 65
2019-11-15 16:00:00 6 22 Noroeste 41 Noroeste 0 -- -- 63
2019-11-15 15:00:00 6.2 23 Noroeste 43 Noroeste 0 -- -- 65
2019-11-15 14:00:00 6.3 29 Noroeste 47 Noroeste 0 -- -- 65
2019-11-15 13:00:00 5.8 24 Noroeste 40 Noroeste 0 -- -- 68
2019-11-15 12:00:00 5.2 22 Noroeste 40 Noroeste 0 -- -- 71
2019-11-15 11:00:00 4.3 15 Noroeste 39 Noroeste 0 -- -- 78
2019-11-15 10:00:00 3.4 21 Noroeste 37 Noroeste 0 -- -- 83
2019-11-15 09:00:00 2.2 17 Noroeste 30 Noroeste 0 -- -- 87
2019-11-15 08:00:00 1.9 17 Noroeste 30 Noroeste 0 -- -- 87
2019-11-15 07:00:00 1.5 13 Noroeste 25 Noroeste 0 -- -- 87
2019-11-15 06:00:00 1.4 14 Noroeste 25 Noroeste 0 -- -- 86
2019-11-15 05:00:00 1.3 13 Noroeste 22 Noroeste 0 -- -- 85
2019-11-15 04:00:00 2 13 Oeste 32 Noroeste 0 -- -- 82
2019-11-15 03:00:00 2.2 15 Noroeste 31 Noroeste 0 -- -- 81
2019-11-15 02:00:00 2.1 14 Oeste 24 Noroeste 0 -- -- 84
2019-11-15 01:00:00 3 15 Noroeste 28 Oeste 0 -- -- 83
2019-11-15 00:00:00 3.7 10 Noroeste 28 Noroeste 0 -- -- 77
2019-11-14 23:00:00 3.9 17 Noroeste 32 Noroeste 0 -- -- 81
2019-11-14 22:00:00 4.2 16 Noroeste 39 Noroeste 0 -- -- 78
2019-11-14 21:00:00 4.4 14 Noroeste 48 Noroeste 0 -- -- 79
2019-11-14 20:00:00 4.7 32 Noroeste 56 Noroeste 0 -- -- 80
2019-11-14 19:00:00 5.2 27 Noroeste 47 Oeste 0 -- -- 87
2019-11-14 18:00:00 4.9 15 Oeste 41 Noroeste 0 -- -- 92
2019-11-14 17:00:00 5.7 30 Noroeste 54 Noroeste 0 -- -- 89
2019-11-14 16:00:00 5.6 25 Oeste 54 Oeste 0 -- -- 92
2019-11-14 15:00:00 4.9 25 Oeste 50 Oeste 0 -- -- 93
2019-11-14 14:00:00 4.5 27 Oeste 49 Oeste 0 -- -- 90
2019-11-14 13:00:00 4.5 25 Oeste 40 Oeste 0 -- -- 87
2019-11-14 12:00:00 4.6 19 Oeste 36 Oeste 0 -- -- 87
2019-11-14 11:00:00 4.3 16 Oeste 38 Sudoeste 0 -- -- 90
2019-11-14 10:00:00 3.6 17 Oeste 37 Oeste 0 -- -- 94
2019-11-14 09:00:00 3.6 18 Oeste 36 Noroeste 0 -- -- 92
2019-11-14 08:00:00 3.5 11 Oeste 21 Noroeste 0 -- -- 96
2019-11-14 07:00:00 3.2 15 Noroeste 48 Oeste 0 -- -- 94
2019-11-14 06:00:00 5.8 28 Noroeste 48 Noroeste 0 -- -- 93
2019-11-14 05:00:00 6.8 30 Oeste 51 Oeste 0 -- -- 91
2019-11-14 04:00:00 7.3 28 Oeste 45 Oeste 0 -- -- 94
2019-11-14 03:00:00 7.3 24 Oeste 43 Sudoeste 0 -- -- 94
2019-11-14 02:00:00 7.7 23 Sudoeste 38 Oeste 0 -- -- 88
2019-11-14 01:00:00 7.5 18 Oeste 33 Oeste 0 -- -- 87
2019-11-14 00:00:00 7.6 16 Sudoeste 30 Oeste 0 -- -- 83
2019-11-13 23:00:00 7.7 16 Oeste 35 Oeste 0 -- -- 81
2019-11-13 22:00:00 7.9 17 Oeste 31 Oeste 0 -- -- 83
2019-11-13 21:00:00 8.7 21 Oeste 40 Oeste 0 -- -- 80
2019-11-13 20:00:00 9.1 13 Oeste 24 Oeste 0 -- -- 80
2019-11-13 19:00:00 10.3 10 Oeste 17 Oeste 0 -- -- 81
2019-11-13 18:00:00 12.4 12 Noroeste 23 Noroeste 0 -- -- 74
2019-11-13 17:00:00 14.3 14 Oeste 28 Noroeste 0 -- -- 68
2019-11-13 16:00:00 14 15 Noroeste 35 Noroeste 0 -- -- 68
2019-11-13 15:00:00 14.5 21 Noroeste 33 Noroeste 0 -- -- 67
2019-11-13 14:00:00 14.2 14 Noroeste 22 Noroeste 0 -- -- 67
2019-11-13 13:00:00 13.7 13 Noroeste 33 Noroeste 0 -- -- 72
2019-11-13 12:00:00 12.8 18 Noroeste 29 Noroeste 0 -- -- 77
2019-11-13 11:00:00 12.2 16 Noroeste 30 Noroeste 0 -- -- 86
2019-11-13 10:00:00 10.8 8 Noroeste 17 Noroeste 0 -- -- 95
2019-11-13 09:00:00 10.5 6 Noroeste 27 Noroeste 0 -- -- 92
2019-11-13 08:00:00 10.7 16 Noroeste 29 Noroeste 0 -- -- 89
2019-11-13 07:00:00 10.9 18 Oeste 41 Oeste 0 -- -- 87
2019-11-13 06:00:00 10.6 18 Oeste 31 Oeste 0 -- -- 91
2019-11-13 05:00:00 10.8 18 Oeste 33 Oeste 0 -- -- 97
2019-11-13 04:00:00 11.1 20 Oeste 36 Oeste 0 -- -- 97
2019-11-13 03:00:00 10.8 24 Oeste 41 Oeste 0 -- -- 97
2019-11-13 02:00:00 10.4 24 Oeste 42 Oeste 0 -- -- 97
2019-11-13 01:00:00 10.3 22 Oeste 42 Oeste 0 -- -- 97
2019-11-13 00:00:00 10.2 21 Oeste 41 Oeste 0 -- -- 97
2019-11-12 23:00:00 10 17 Oeste 32 Oeste 0 -- -- 96
2019-11-12 22:00:00 9.7 20 Oeste 40 Oeste 0 -- -- 95
2019-11-12 21:00:00 9.4 22 Sudoeste 37 Oeste 0 -- -- 95
2019-11-12 20:00:00 8.9 22 Oeste 38 Sudoeste 0 -- -- 93
2019-11-12 19:00:00 8.6 12 Sudoeste 31 Oeste 0 -- -- 92
2019-11-12 18:00:00 8.6 19 Oeste 29 Oeste 0 -- -- 88
2019-11-12 17:00:00 8.5 13 Oeste 25 Oeste 0 -- -- 86
2019-11-12 16:00:00 8.6 15 Sudoeste 23 Sudoeste 0 -- -- 81
2019-11-12 15:00:00 9.3 14 Oeste 22 Oeste 0 -- -- 76
2019-11-12 14:00:00 9 9 Oeste 17 Oeste 0 -- -- 75
2019-11-12 13:00:00 8.8 9 Noroeste 20 Oeste 0 -- -- 76
2019-11-12 12:00:00 8.2 9 Noroeste 22 Oeste 0 -- -- 78
2019-11-12 11:00:00 7.4 13 Noroeste 23 Noroeste 0 -- -- 82
2019-11-12 10:00:00 5.8 6 Noroeste 13 Oeste 0 -- -- 88
2019-11-12 09:00:00 2.8 2 Oeste 7 Oeste 0 -- -- 96
2019-11-12 08:00:00 2.3 4 Noroeste 6 Oeste 0 -- -- 94
2019-11-12 07:00:00 1.8 3 Noroeste 6 Oeste 0 -- -- 94
2019-11-12 06:00:00 2 0 Calma 4 Sur 0 -- -- 96
2019-11-12 05:00:00 1.8 0 Calma 4 Sudeste 0 -- -- 96
2019-11-12 04:00:00 1.6 2 Sudeste 4 Sur 0 -- -- 95
2019-11-12 03:00:00 2.7 0 Calma 4 Sur 0 -- -- 94
2019-11-12 02:00:00 2.9 0 Calma 0 Calma 0 -- -- 95
2019-11-12 01:00:00 2.7 0 Calma 6 Noroeste 0 -- -- 91
2019-11-12 00:00:00 4.2 0 Calma 5 Norte 0 -- -- 91
2019-11-11 23:00:00 4.3 0 Calma 4 Noroeste 0 -- -- 91
2019-11-11 22:00:00 4.9 3 Norte 11 Noroeste 0 -- -- 87
2019-11-11 21:00:00 6 7 Norte 14 Noroeste 0 -- -- 85
2019-11-11 20:00:00 7 4 Noroeste 10 Noroeste 0 -- -- 83
2019-11-11 19:00:00 8.2 8 Noroeste 15 Noroeste 0 -- -- 82
2019-11-11 18:00:00 10.5 12 Noroeste 26 Noroeste 0 -- -- 76
2019-11-11 17:00:00 11.8 17 Noroeste 32 Noroeste 0 -- -- 75
2019-11-11 16:00:00 12 17 Noroeste 35 Noroeste 0 -- -- 79
2019-11-11 15:00:00 11.8 23 Noroeste 37 Noroeste 0 -- -- 82
2019-11-11 14:00:00 11.9 24 Noroeste 36 Noroeste 0 -- -- 89
2019-11-11 13:00:00 11 16 Noroeste 26 Noroeste 0 -- -- 98
2019-11-11 12:00:00 10.6 15 Noroeste 23 Oeste 0 -- -- 99
2019-11-11 11:00:00 10 11 Oeste 21 Oeste 0 -- -- 99
2019-11-11 10:00:00 9.3 13 Oeste 24 Oeste 0 -- -- 99
2019-11-11 09:00:00 8.6 13 Oeste 24 Oeste 0 -- -- 99
2019-11-11 08:00:00 8.1 9 Oeste 16 Oeste 0 -- -- 99
2019-11-11 07:00:00 7.6 10 Oeste 15 Oeste 0 -- -- 98
2019-11-11 06:00:00 7.2 8 Sudoeste 15 Sudoeste 0 -- -- 98
2019-11-11 05:00:00 6.9 5 Sudoeste 10 Sudoeste 0 -- -- 98
2019-11-11 04:00:00 6.7 6 Oeste 15 Oeste 0 -- -- 98
2019-11-11 03:00:00 6.6 8 Oeste 13 Oeste 0 -- -- 98
2019-11-11 02:00:00 6.4 5 Oeste 14 Noroeste 0 -- -- 98
2019-11-11 01:00:00 6.3 7 Noroeste 14 Noroeste 0 -- -- 97
2019-11-11 00:00:00 6 8 Oeste 12 Oeste 0 -- -- 97